createdAt,value
2019-05-29T00:00:37.872Z,11.50
2019-05-29T00:03:06.309Z,11.60
2019-05-29T00:05:34.031Z,11.50
2019-05-29T00:08:01.710Z,11.50
2019-05-29T00:10:29.668Z,11.50
2019-05-29T00:12:57.355Z,11.50
2019-05-29T00:15:24.995Z,11.50
2019-05-29T00:17:52.683Z,11.50
2019-05-29T00:20:20.328Z,11.50
2019-05-29T00:22:48.110Z,11.50
2019-05-29T00:25:16.660Z,11.50
2019-05-29T00:27:44.555Z,11.50
2019-05-29T00:30:13.487Z,11.50
2019-05-29T00:32:41.235Z,11.50
2019-05-29T00:35:10.086Z,11.50
2019-05-29T00:37:38.207Z,11.50
2019-05-29T00:40:06.706Z,11.50
2019-05-29T00:42:34.579Z,11.50
2019-05-29T00:45:02.239Z,11.40
2019-05-29T00:47:30.243Z,11.40
2019-05-29T00:49:57.971Z,11.50
2019-05-29T00:52:25.661Z,11.50
2019-05-29T00:54:53.300Z,11.50
2019-05-29T00:57:20.946Z,11.40
2019-05-29T00:59:48.623Z,11.40
2019-05-29T01:02:17.776Z,11.40
2019-05-29T01:04:45.648Z,11.40
2019-05-29T01:07:14.146Z,11.40
2019-05-29T01:09:42.008Z,11.40
2019-05-29T01:12:10.730Z,11.40
2019-05-29T01:14:49.589Z,11.40
2019-05-29T01:17:07.970Z,11.40
2019-05-29T01:19:35.912Z,11.40
2019-05-29T01:22:03.627Z,11.40
2019-05-29T01:24:31.310Z,11.40
2019-05-29T01:26:59.323Z,11.40
2019-05-29T01:29:27.271Z,11.40
2019-05-29T01:31:54.927Z,11.40
2019-05-29T01:34:23.881Z,11.40
2019-05-29T01:36:51.729Z,11.40
2019-05-29T01:39:19.531Z,11.40
2019-05-29T01:41:47.180Z,11.40
2019-05-29T01:44:15.321Z,11.40
2019-05-29T01:46:43.055Z,11.40
2019-05-29T01:49:10.734Z,11.40
2019-05-29T01:51:38.383Z,11.40
2019-05-29T01:54:06.126Z,11.40
2019-05-29T01:56:33.791Z,11.40
2019-05-29T01:59:01.475Z,11.30
2019-05-29T02:01:29.198Z,11.40
2019-05-29T02:03:56.872Z,11.30
2019-05-29T02:06:24.522Z,11.40
2019-05-29T02:08:52.528Z,11.40
2019-05-29T02:11:21.251Z,11.40
2019-05-29T02:13:49.028Z,11.30
2019-05-29T02:16:16.679Z,11.30
2019-05-29T02:18:44.351Z,11.30
2019-05-29T02:21:11.995Z,11.30
2019-05-29T02:23:39.677Z,11.30
2019-05-29T02:26:07.323Z,11.30
2019-05-29T02:28:35.009Z,11.30
2019-05-29T02:31:02.657Z,11.30
2019-05-29T02:33:30.332Z,11.30
2019-05-29T02:35:57.995Z,11.20
2019-05-29T02:38:27.259Z,11.20
2019-05-29T02:40:55.871Z,11.30
2019-05-29T02:43:23.989Z,11.30
2019-05-29T02:45:55.069Z,11.20
2019-05-29T02:48:23.233Z,11.20
2019-05-29T02:50:51.704Z,11.30
2019-05-29T02:53:20.063Z,11.20
2019-05-29T02:55:47.911Z,11.20
2019-05-29T02:58:15.539Z,11.20
2019-05-29T03:00:55.596Z,11.20
2019-05-29T03:03:26.141Z,11.20
2019-05-29T03:05:53.941Z,11.20
2019-05-29T03:08:22.324Z,11.20
2019-05-29T03:10:50.658Z,11.20
2019-05-29T03:13:18.940Z,11.20
2019-05-29T03:15:46.960Z,11.20
2019-05-29T03:18:14.920Z,11.20
2019-05-29T03:20:42.608Z,11.20
2019-05-29T03:23:10.500Z,11.30
2019-05-29T03:25:38.185Z,11.30
2019-05-29T03:28:05.970Z,11.20
2019-05-29T03:30:38.751Z,11.20
2019-05-29T03:33:03.084Z,11.20
2019-05-29T03:35:37.670Z,11.20
2019-05-29T03:38:00.136Z,11.20
2019-05-29T03:40:33.148Z,11.20
2019-05-29T03:43:00.688Z,11.20
2019-05-29T03:45:28.956Z,11.20
2019-05-29T03:47:57.299Z,11.20
2019-05-29T03:50:26.673Z,11.10
2019-05-29T03:52:54.347Z,11.20
2019-05-29T03:55:22.033Z,11.20
2019-05-29T03:57:49.667Z,11.20
2019-05-29T04:00:17.587Z,11.20
2019-05-29T04:02:45.227Z,11.10
2019-05-29T04:05:13.049Z,11.10
2019-05-29T04:07:40.691Z,11.10
2019-05-29T04:10:08.749Z,11.10
2019-05-29T04:12:38.094Z,11.10
2019-05-29T04:15:05.868Z,11.10
2019-05-29T04:17:35.520Z,11.20
2019-05-29T04:20:04.718Z,11.20
2019-05-29T04:22:34.317Z,11.20
2019-05-29T04:25:04.657Z,11.20
2019-05-29T04:27:34.254Z,11.10
2019-05-29T04:30:03.062Z,11.10
2019-05-29T04:32:32.008Z,11.10
2019-05-29T04:34:59.986Z,11.10
2019-05-29T04:37:28.332Z,11.10
2019-05-29T04:39:56.367Z,11.10
2019-05-29T04:42:24.013Z,11.10
2019-05-29T04:44:51.701Z,11.00
2019-05-29T04:47:19.339Z,11.10
2019-05-29T04:49:47.014Z,11.00
2019-05-29T04:52:14.663Z,11.00
2019-05-29T04:54:42.345Z,11.10
2019-05-29T04:57:09.988Z,11.00
2019-05-29T04:59:37.667Z,11.00
2019-05-29T05:02:05.312Z,11.10
2019-05-29T05:04:33.246Z,11.00
2019-05-29T05:07:00.918Z,11.10
2019-05-29T05:09:29.245Z,11.10
2019-05-29T05:11:57.312Z,11.10
2019-05-29T05:14:24.992Z,11.10
2019-05-29T05:16:53.308Z,11.10
2019-05-29T05:19:20.956Z,11.10
2019-05-29T05:21:48.638Z,11.10
2019-05-29T05:24:16.278Z,11.00
2019-05-29T05:26:43.971Z,11.10
2019-05-29T05:29:11.963Z,11.10
2019-05-29T05:31:40.736Z,11.00
2019-05-29T05:34:08.587Z,11.00
2019-05-29T05:36:36.799Z,11.10
2019-05-29T05:39:06.292Z,11.00
2019-05-29T05:41:34.732Z,11.00
2019-05-29T05:44:02.668Z,11.00
2019-05-29T05:46:30.980Z,11.00
2019-05-29T05:48:58.820Z,11.00
2019-05-29T05:51:26.511Z,11.10
2019-05-29T05:53:54.147Z,11.10
2019-05-29T05:56:21.831Z,11.10
2019-05-29T05:58:49.734Z,11.00
2019-05-29T06:01:17.431Z,11.10
2019-05-29T06:03:45.063Z,11.00
2019-05-29T06:06:12.770Z,11.00
2019-05-29T06:08:40.420Z,11.00
2019-05-29T06:11:08.110Z,11.00
2019-05-29T06:13:36.309Z,11.10
2019-05-29T06:16:04.200Z,11.10
2019-05-29T06:18:32.362Z,11.10
2019-05-29T06:21:00.113Z,11.10
2019-05-29T06:23:27.843Z,11.10
2019-05-29T06:25:55.521Z,11.10
2019-05-29T06:28:23.236Z,11.10
2019-05-29T06:30:51.316Z,11.10
2019-05-29T06:33:18.960Z,11.10
2019-05-29T06:35:46.644Z,11.10
2019-05-29T06:38:14.611Z,11.10
2019-05-29T06:40:44.017Z,11.10
2019-05-29T06:43:22.662Z,11.10
2019-05-29T06:45:50.347Z,11.10
2019-05-29T06:48:41.445Z,11.20
2019-05-29T06:50:57.325Z,11.20
2019-05-29T06:53:24.344Z,11.20
2019-05-29T06:55:53.829Z,11.20
2019-05-29T06:58:21.476Z,11.20
2019-05-29T07:00:49.188Z,11.10
2019-05-29T07:03:16.880Z,11.10
2019-05-29T07:05:50.240Z,11.10
2019-05-29T07:08:20.928Z,11.20
2019-05-29T07:10:44.594Z,11.20
2019-05-29T07:13:12.388Z,11.20
2019-05-29T07:15:40.788Z,11.30
2019-05-29T07:18:08.595Z,11.40
2019-05-29T07:20:36.537Z,11.40
2019-05-29T07:23:04.429Z,11.50
2019-05-29T07:25:32.359Z,11.50
2019-05-29T07:28:00.336Z,11.50
2019-05-29T07:30:29.715Z,11.40
2019-05-29T07:32:59.135Z,11.30
2019-05-29T07:35:26.916Z,11.30
2019-05-29T07:37:55.172Z,11.40
2019-05-29T07:40:22.817Z,11.40
2019-05-29T07:42:56.061Z,11.50
2019-05-29T07:45:20.181Z,11.60
2019-05-29T07:47:48.571Z,11.60
2019-05-29T07:50:16.444Z,11.70
2019-05-29T07:52:45.355Z,11.80
2019-05-29T07:55:13.771Z,11.80
2019-05-29T07:57:42.657Z,12.00
2019-05-29T08:00:11.340Z,12.00
2019-05-29T08:02:39.417Z,12.00
2019-05-29T08:05:07.611Z,12.10
2019-05-29T08:07:35.299Z,12.10
2019-05-29T08:10:04.420Z,12.30
2019-05-29T08:12:32.108Z,12.30
2019-05-29T08:14:59.743Z,12.50
2019-05-29T08:17:27.427Z,12.60
2019-05-29T08:20:05.582Z,12.60
2019-05-29T08:22:34.107Z,12.70
2019-05-29T08:24:53.844Z,12.70
2019-05-29T08:27:21.544Z,12.70
2019-05-29T08:29:49.197Z,12.60
2019-05-29T08:32:16.836Z,12.50
2019-05-29T08:34:45.129Z,12.40
2019-05-29T08:37:13.214Z,12.40
2019-05-29T08:39:41.288Z,12.30
2019-05-29T08:42:22.459Z,12.30
2019-05-29T08:44:38.770Z,12.20
2019-05-29T08:47:10.621Z,12.10
2019-05-29T08:49:35.880Z,12.10
2019-05-29T08:52:11.988Z,12.20
2019-05-29T08:54:33.001Z,12.20
2019-05-29T08:57:00.640Z,12.20
2019-05-29T08:59:28.343Z,12.20
2019-05-29T09:01:55.982Z,12.20
2019-05-29T09:04:23.677Z,12.20
2019-05-29T09:06:51.732Z,12.10
2019-05-29T09:09:19.395Z,12.00
2019-05-29T09:11:47.559Z,11.90
2019-05-29T09:14:15.824Z,11.80
2019-05-29T09:16:43.475Z,11.80
2019-05-29T09:19:12.108Z,11.80
2019-05-29T09:21:39.875Z,11.90
2019-05-29T09:24:07.555Z,12.00
2019-05-29T09:26:35.199Z,12.30
2019-05-29T09:29:02.894Z,12.50
2019-05-29T09:31:30.540Z,12.60
2019-05-29T09:33:58.215Z,12.70
2019-05-29T09:36:25.919Z,12.80
2019-05-29T09:38:53.855Z,12.90
2019-05-29T09:41:23.572Z,13.00
2019-05-29T09:43:58.831Z,13.10
2019-05-29T09:46:21.860Z,13.20
2019-05-29T09:48:50.300Z,13.20
2019-05-29T09:51:21.618Z,13.10
2019-05-29T09:53:47.580Z,13.10
2019-05-29T09:56:15.607Z,13.00
2019-05-29T09:58:43.252Z,13.00
2019-05-29T10:01:22.832Z,12.90
2019-05-29T10:03:40.316Z,12.90
2019-05-29T10:06:09.473Z,12.90
2019-05-29T10:08:37.428Z,12.90
2019-05-29T10:11:10.525Z,12.90
2019-05-29T10:13:34.487Z,13.00
2019-05-29T10:16:02.867Z,13.10
2019-05-29T10:18:32.624Z,13.10
2019-05-29T10:21:01.322Z,13.10
2019-05-29T10:23:29.066Z,13.10
2019-05-29T10:25:58.424Z,13.20
2019-05-29T10:28:26.496Z,13.20
2019-05-29T10:30:54.144Z,13.30
2019-05-29T10:33:22.128Z,13.30
2019-05-29T10:35:53.358Z,13.30
2019-05-29T10:38:19.170Z,13.30
2019-05-29T10:40:56.683Z,13.20
2019-05-29T10:43:33.271Z,13.30
2019-05-29T10:45:47.909Z,13.40
2019-05-29T10:48:15.352Z,13.60
2019-05-29T10:50:43.564Z,13.60
2019-05-29T10:53:11.711Z,13.60
2019-05-29T10:55:39.689Z,13.60
2019-05-29T10:58:07.368Z,13.70
2019-05-29T11:00:38.695Z,13.60
2019-05-29T11:03:04.587Z,13.50
2019-05-29T11:05:32.588Z,13.50
2019-05-29T11:08:00.268Z,13.40
2019-05-29T11:10:27.920Z,13.30
2019-05-29T11:12:56.793Z,13.20
2019-05-29T11:15:24.625Z,13.20
2019-05-29T11:17:53.231Z,13.20
2019-05-29T11:20:21.293Z,13.30
2019-05-29T11:22:49.571Z,13.30
2019-05-29T11:25:23.573Z,13.30
2019-05-29T11:27:48.370Z,13.40
2019-05-29T11:30:17.968Z,13.30
2019-05-29T11:32:47.597Z,13.30
2019-05-29T11:35:16.192Z,13.20
2019-05-29T11:37:43.876Z,13.10
2019-05-29T11:40:12.150Z,13.00
2019-05-29T11:42:39.835Z,13.00
2019-05-29T11:45:09.315Z,12.90
2019-05-29T11:47:36.994Z,12.90
2019-05-29T11:50:18.603Z,12.80
2019-05-29T11:52:42.952Z,12.90
2019-05-29T11:55:08.094Z,12.90
2019-05-29T11:57:34.970Z,12.90
2019-05-29T12:00:16.477Z,12.90
2019-05-29T12:02:33.681Z,12.90
2019-05-29T12:05:03.838Z,12.90
2019-05-29T12:07:30.785Z,12.90
2019-05-29T12:09:59.507Z,12.90
2019-05-29T12:12:27.640Z,12.90
2019-05-29T12:15:04.942Z,12.90
2019-05-29T12:17:24.727Z,12.90
2019-05-29T12:19:52.364Z,12.90
2019-05-29T12:22:20.011Z,12.90
2019-05-29T12:24:47.729Z,12.90
2019-05-29T12:27:15.380Z,12.90
2019-05-29T12:29:43.064Z,13.00
2019-05-29T12:32:11.982Z,13.00
2019-05-29T12:34:52.738Z,13.00
2019-05-29T12:37:09.552Z,13.00
2019-05-29T12:39:37.231Z,13.00
2019-05-29T12:42:04.947Z,13.10
2019-05-29T12:44:32.631Z,13.10
2019-05-29T12:47:01.816Z,13.10
2019-05-29T12:49:29.811Z,13.20
2019-05-29T12:51:57.738Z,13.20
2019-05-29T12:54:25.523Z,13.20
2019-05-29T12:56:54.049Z,13.20
2019-05-29T12:59:21.927Z,13.30
2019-05-29T13:01:49.581Z,13.40
2019-05-29T13:04:17.304Z,13.50
2019-05-29T13:06:44.953Z,13.50
2019-05-29T13:09:12.631Z,13.50
2019-05-29T13:11:40.567Z,13.50
2019-05-29T13:14:08.312Z,13.50
2019-05-29T13:16:36.037Z,13.50
2019-05-29T13:19:05.192Z,13.50
2019-05-29T13:21:33.360Z,13.60
2019-05-29T13:24:02.757Z,13.60
2019-05-29T13:26:30.460Z,13.60
2019-05-29T13:28:59.450Z,13.60
2019-05-29T13:31:27.386Z,13.70
2019-05-29T13:33:55.625Z,13.60
2019-05-29T13:36:23.344Z,13.60
2019-05-29T13:38:51.019Z,13.60
2019-05-29T13:41:18.735Z,13.50
2019-05-29T13:43:48.852Z,13.50
2019-05-29T13:46:17.820Z,13.50
2019-05-29T13:48:46.010Z,13.40
2019-05-29T13:51:13.726Z,13.50
2019-05-29T13:53:41.473Z,13.50
2019-05-29T13:56:09.375Z,13.50
2019-05-29T13:58:37.057Z,13.50
2019-05-29T14:01:04.691Z,13.50
2019-05-29T14:03:33.232Z,13.50
2019-05-29T14:06:00.963Z,13.50
2019-05-29T14:08:28.631Z,13.50
2019-05-29T14:10:56.280Z,13.40
2019-05-29T14:13:24.078Z,13.40
2019-05-29T14:15:51.772Z,13.30
2019-05-29T14:18:19.422Z,13.30
2019-05-29T14:20:47.352Z,13.20
2019-05-29T14:23:15.003Z,13.20
2019-05-29T14:25:42.751Z,13.20
2019-05-29T14:28:10.697Z,13.20
2019-05-29T14:30:38.392Z,13.10
2019-05-29T14:33:06.741Z,12.90
2019-05-29T14:35:35.109Z,12.70
2019-05-29T14:38:04.423Z,12.70
2019-05-29T14:40:32.227Z,12.60
2019-05-29T14:42:59.985Z,12.60
2019-05-29T14:45:28.071Z,12.60
2019-05-29T14:47:55.767Z,12.60
2019-05-29T14:50:23.451Z,12.60
2019-05-29T14:52:51.245Z,12.50
2019-05-29T14:55:18.999Z,12.50
2019-05-29T14:57:46.933Z,12.60
2019-05-29T15:00:24.708Z,12.60
2019-05-29T15:02:45.619Z,12.70
2019-05-29T15:05:14.950Z,12.70
2019-05-29T15:07:42.995Z,12.70
2019-05-29T15:10:22.688Z,12.70
2019-05-29T15:12:40.745Z,12.70
2019-05-29T15:15:11.119Z,12.70
2019-05-29T15:17:38.601Z,12.80
2019-05-29T15:20:07.410Z,12.80
2019-05-29T15:22:35.269Z,12.90
2019-05-29T15:25:13.472Z,12.80
2019-05-29T15:27:33.849Z,12.80
2019-05-29T15:30:01.927Z,12.90
2019-05-29T15:32:29.884Z,12.90
2019-05-29T15:34:57.783Z,12.90
2019-05-29T15:37:25.492Z,12.90
2019-05-29T15:39:53.164Z,13.00
2019-05-29T15:42:20.847Z,13.00
2019-05-29T15:44:48.735Z,12.90
2019-05-29T15:47:17.190Z,12.90
2019-05-29T15:49:45.001Z,12.90
2019-05-29T15:52:13.123Z,12.90
2019-05-29T15:54:40.977Z,12.90
2019-05-29T15:57:09.089Z,12.90
2019-05-29T15:59:37.157Z,12.90
2019-05-29T16:02:04.836Z,12.80
2019-05-29T16:04:32.879Z,12.80
2019-05-29T16:07:00.584Z,12.80
2019-05-29T16:09:28.221Z,12.80
2019-05-29T16:11:55.923Z,12.70
2019-05-29T16:14:23.559Z,12.70
2019-05-29T16:16:51.334Z,12.70
2019-05-29T16:19:19.045Z,12.60
2019-05-29T16:21:46.724Z,12.60
2019-05-29T16:24:14.755Z,12.70
2019-05-29T16:26:42.727Z,12.60
2019-05-29T16:29:10.485Z,12.60
2019-05-29T16:31:38.267Z,12.70
2019-05-29T16:34:06.026Z,12.50
2019-05-29T16:36:33.760Z,12.50
2019-05-29T16:39:01.394Z,12.50
2019-05-29T16:41:29.075Z,12.50
2019-05-29T16:43:56.724Z,12.40
2019-05-29T16:46:24.747Z,12.30
2019-05-29T16:48:52.517Z,12.30
2019-05-29T16:51:20.913Z,12.20
2019-05-29T16:53:48.629Z,12.20
2019-05-29T16:56:16.786Z,12.20
2019-05-29T16:58:44.531Z,12.20
2019-05-29T17:01:13.345Z,12.20
2019-05-29T17:03:41.179Z,12.20
2019-05-29T17:06:08.932Z,12.10
2019-05-29T17:08:36.577Z,12.10
2019-05-29T17:11:05.127Z,12.10
2019-05-29T17:13:32.994Z,12.00
2019-05-29T17:16:00.772Z,12.00
2019-05-29T17:18:28.490Z,12.00
2019-05-29T17:20:56.171Z,12.00
2019-05-29T17:23:24.948Z,11.90
2019-05-29T17:25:52.783Z,11.90
2019-05-29T17:28:23.302Z,11.90
2019-05-29T17:30:49.940Z,11.90
2019-05-29T17:33:18.895Z,11.90
2019-05-29T17:35:46.790Z,11.80
2019-05-29T17:38:14.868Z,11.80
2019-05-29T17:40:42.563Z,11.90
2019-05-29T17:43:10.243Z,11.80
2019-05-29T17:45:38.191Z,11.80
2019-05-29T17:48:05.880Z,11.80
2019-05-29T17:50:33.524Z,11.80
2019-05-29T17:53:01.271Z,11.80
2019-05-29T17:55:28.916Z,11.80
2019-05-29T17:57:56.597Z,11.80
2019-05-29T18:00:24.730Z,11.80
2019-05-29T18:02:52.917Z,11.80
2019-05-29T18:05:22.655Z,11.80
2019-05-29T18:07:50.512Z,11.80
2019-05-29T18:10:20.307Z,11.80
2019-05-29T18:12:47.915Z,11.80
2019-05-29T18:15:17.185Z,11.80
2019-05-29T18:17:44.952Z,11.80
2019-05-29T18:20:14.618Z,11.70
2019-05-29T18:22:42.172Z,11.80
2019-05-29T18:25:10.379Z,11.80
2019-05-29T18:27:38.069Z,11.80
2019-05-29T18:30:07.486Z,11.80
2019-05-29T18:32:35.735Z,11.80
2019-05-29T18:35:04.724Z,11.80
2019-05-29T18:37:32.493Z,11.80
2019-05-29T18:40:00.212Z,11.80
2019-05-29T18:42:29.191Z,11.90
2019-05-29T18:44:57.277Z,11.90
2019-05-29T18:47:25.188Z,11.90
2019-05-29T18:49:53.219Z,11.90
2019-05-29T18:52:21.798Z,11.90
2019-05-29T18:54:49.629Z,11.80
2019-05-29T18:57:17.316Z,11.80
2019-05-29T18:59:44.956Z,11.80
2019-05-29T19:02:12.710Z,11.80
2019-05-29T19:04:40.356Z,11.80
2019-05-29T19:07:08.001Z,11.80
2019-05-29T19:09:35.670Z,11.80
2019-05-29T19:12:03.388Z,11.80
2019-05-29T19:14:32.404Z,11.80
2019-05-29T19:17:00.560Z,11.80
2019-05-29T19:19:28.431Z,11.80
2019-05-29T19:21:56.164Z,11.80
2019-05-29T19:24:24.545Z,11.80
2019-05-29T19:26:52.281Z,11.80
2019-05-29T19:29:19.954Z,11.80
2019-05-29T19:31:47.599Z,11.80
2019-05-29T19:34:15.325Z,11.80
2019-05-29T19:36:43.442Z,11.80
2019-05-29T19:39:11.515Z,11.70
2019-05-29T19:41:39.465Z,11.70
2019-05-29T19:44:07.174Z,11.70
2019-05-29T19:46:52.802Z,11.70
2019-05-29T19:49:04.349Z,11.70
2019-05-29T19:51:33.337Z,11.70
2019-05-29T19:54:01.280Z,11.70
2019-05-29T19:56:29.648Z,11.70
2019-05-29T19:58:57.472Z,11.70
2019-05-29T20:01:31.714Z,11.70
2019-05-29T20:03:54.525Z,11.70
2019-05-29T20:06:22.176Z,11.70
2019-05-29T20:08:49.856Z,11.70
2019-05-29T20:11:17.503Z,11.70
2019-05-29T20:13:45.424Z,11.70
2019-05-29T20:16:13.076Z,11.70
2019-05-29T20:18:40.787Z,11.70
2019-05-29T20:21:08.424Z,11.70
2019-05-29T20:23:36.767Z,11.70
2019-05-29T20:26:04.527Z,11.70
2019-05-29T20:28:32.207Z,11.70
2019-05-29T20:30:59.855Z,11.70
2019-05-29T20:33:27.534Z,11.70
2019-05-29T20:35:55.182Z,11.70
2019-05-29T20:38:22.936Z,11.70
2019-05-29T20:40:50.649Z,11.70
2019-05-29T20:43:18.322Z,11.70
2019-05-29T20:45:45.963Z,11.70
2019-05-29T20:48:13.679Z,11.60
2019-05-29T20:50:41.395Z,11.60
2019-05-29T20:53:09.045Z,11.60
2019-05-29T20:55:37.715Z,11.60
2019-05-29T20:58:21.533Z,11.60
2019-05-29T21:00:36.074Z,11.60
2019-05-29T21:03:03.905Z,11.60
2019-05-29T21:05:32.477Z,11.50
2019-05-29T21:08:00.213Z,11.50
2019-05-29T21:10:27.890Z,11.50
2019-05-29T21:12:55.857Z,11.50
2019-05-29T21:15:23.527Z,11.50
2019-05-29T21:17:51.176Z,11.50
2019-05-29T21:20:19.159Z,11.50
2019-05-29T21:22:46.812Z,11.50
2019-05-29T21:25:18.880Z,11.40
2019-05-29T21:27:48.796Z,11.50
2019-05-29T21:30:14.251Z,11.50
2019-05-29T21:32:42.049Z,11.40
2019-05-29T21:35:09.734Z,11.40
2019-05-29T21:37:38.201Z,11.40
2019-05-29T21:40:06.893Z,11.40
2019-05-29T21:42:36.434Z,11.40
2019-05-29T21:45:05.212Z,11.40
2019-05-29T21:47:32.866Z,11.40
2019-05-29T21:50:00.551Z,11.40
2019-05-29T21:52:28.492Z,11.40
2019-05-29T21:54:56.163Z,11.40
2019-05-29T21:57:23.809Z,11.40
2019-05-29T21:59:51.489Z,11.40
2019-05-29T22:02:19.139Z,11.30
2019-05-29T22:04:46.824Z,11.30
2019-05-29T22:07:14.482Z,11.30
2019-05-29T22:09:42.163Z,11.30
2019-05-29T22:12:09.807Z,11.30
2019-05-29T22:14:37.452Z,11.20
2019-05-29T22:17:05.148Z,11.20
2019-05-29T22:19:32.788Z,11.20
2019-05-29T22:22:01.292Z,11.20
2019-05-29T22:24:29.096Z,11.20
2019-05-29T22:26:57.287Z,11.20
2019-05-29T22:29:25.095Z,11.20
2019-05-29T22:31:53.352Z,11.20
2019-05-29T22:34:21.098Z,11.20
2019-05-29T22:36:48.779Z,11.20
2019-05-29T22:39:16.425Z,11.20
2019-05-29T22:41:44.432Z,11.20
2019-05-29T22:44:12.084Z,11.20
2019-05-29T22:46:40.032Z,11.20
2019-05-29T22:49:07.680Z,11.20
2019-05-29T22:51:35.359Z,11.20
2019-05-29T22:54:03.053Z,11.20
2019-05-29T22:56:30.791Z,11.20
2019-05-29T22:58:58.559Z,11.20
2019-05-29T23:01:26.240Z,11.20
2019-05-29T23:03:54.180Z,11.20
2019-05-29T23:06:22.043Z,11.20
2019-05-29T23:08:49.687Z,11.20
2019-05-29T23:11:17.439Z,11.10
2019-05-29T23:13:45.112Z,11.10
2019-05-29T23:16:12.842Z,11.10
2019-05-29T23:18:40.496Z,11.10
2019-05-29T23:21:08.434Z,11.10
2019-05-29T23:23:36.075Z,11.10
2019-05-29T23:26:03.753Z,11.10
2019-05-29T23:28:31.567Z,11.10
2019-05-29T23:30:59.220Z,11.10
2019-05-29T23:33:26.968Z,11.10
2019-05-29T23:35:54.902Z,11.10
2019-05-29T23:38:22.634Z,11.10
2019-05-29T23:40:50.298Z,11.10
2019-05-29T23:43:18.038Z,11.10
2019-05-29T23:45:45.683Z,11.10
2019-05-29T23:48:13.648Z,11.10
2019-05-29T23:50:41.612Z,11.10
2019-05-29T23:53:09.295Z,11.10
2019-05-29T23:55:37.265Z,11.10
2019-05-29T23:58:08.230Z,11.10
